sensor_id;sensor_type;location;lat;lon;timestamp;temperature;humidity
21625;DHT22;10974;51.034;3.744;2022-09-09T00:04:34;18.40;99.90
21625;DHT22;10974;51.034;3.744;2022-09-09T00:07:09;18.60;99.90
21625;DHT22;10974;51.034;3.744;2022-09-09T00:09:57;19.10;99.90
21625;DHT22;10974;51.034;3.744;2022-09-09T00:15:21;19.20;99.90
21625;DHT22;10974;51.034;3.744;2022-09-09T00:17:56;19.00;99.90
21625;DHT22;10974;51.034;3.744;2022-09-09T00:23:08;19.80;99.90
21625;DHT22;10974;51.034;3.744;2022-09-09T00:25:46;19.50;99.90
21625;DHT22;10974;51.034;3.744;2022-09-09T00:28:20;19.30;99.90
21625;DHT22;10974;51.034;3.744;2022-09-09T00:30:48;19.30;99.90
21625;DHT22;10974;51.034;3.744;2022-09-09T00:33:16;19.30;99.90
21625;DHT22;10974;51.034;3.744;2022-09-09T00:35:57;19.70;99.90
21625;DHT22;10974;51.034;3.744;2022-09-09T00:39:00;19.40;99.90
21625;DHT22;10974;51.034;3.744;2022-09-09T00:44:11;20.10;99.90
21625;DHT22;10974;51.034;3.744;2022-09-09T00:52:08;19.20;99.90
21625;DHT22;10974;51.034;3.744;2022-09-09T00:55:05;19.10;99.90
21625;DHT22;10974;51.034;3.744;2022-09-09T00:57:33;19.30;99.90
21625;DHT22;10974;51.034;3.744;2022-09-09T01:09:04;15.50;99.90
21625;DHT22;10974;51.034;3.744;2022-09-09T01:14:27;15.30;99.90
21625;DHT22;10974;51.034;3.744;2022-09-09T01:16:59;15.40;99.90
21625;DHT22;10974;51.034;3.744;2022-09-09T01:20:10;15.30;99.90
21625;DHT22;10974;51.034;3.744;2022-09-09T01:22:52;15.20;99.90
21625;DHT22;10974;51.034;3.744;2022-09-09T01:25:56;15.30;99.90
21625;DHT22;10974;51.034;3.744;2022-09-09T01:28:16;15.30;99.90
21625;DHT22;10974;51.034;3.744;2022-09-09T01:30:44;15.40;99.90
21625;DHT22;10974;51.034;3.744;2022-09-09T01:33:13;15.20;99.90
21625;DHT22;10974;51.034;3.744;2022-09-09T01:35:50;15.20;99.90
21625;DHT22;10974;51.034;3.744;2022-09-09T01:38:20;15.40;99.90
21625;DHT22;10974;51.034;3.744;2022-09-09T01:40:46;15.30;99.90
21625;DHT22;10974;51.034;3.744;2022-09-09T01:43:13;15.30;99.90
21625;DHT22;10974;51.034;3.744;2022-09-09T01:45:39;14.90;99.90
21625;DHT22;10974;51.034;3.744;2022-09-09T01:48:06;15.00;99.90
21625;DHT22;10974;51.034;3.744;2022-09-09T01:50:32;15.10;99.90
21625;DHT22;10974;51.034;3.744;2022-09-09T01:52:59;15.10;99.90
21625;DHT22;10974;51.034;3.744;2022-09-09T01:55:40;15.10;99.90
21625;DHT22;10974;51.034;3.744;2022-09-09T01:58:33;15.10;99.90
21625;DHT22;10974;51.034;3.744;2022-09-09T02:01:04;15.10;99.90
21625;DHT22;10974;51.034;3.744;2022-09-09T02:03:32;15.30;99.90
21625;DHT22;10974;51.034;3.744;2022-09-09T02:06:33;15.20;99.90
21625;DHT22;10974;51.034;3.744;2022-09-09T02:09:02;15.10;99.90
21625;DHT22;10974;51.034;3.744;2022-09-09T02:11:30;15.10;99.90
21625;DHT22;10974;51.034;3.744;2022-09-09T02:14:01;15.20;99.90
21625;DHT22;10974;51.034;3.744;2022-09-09T02:16:38;15.20;99.90
21625;DHT22;10974;51.034;3.744;2022-09-09T02:19:11;15.10;99.90
21625;DHT22;10974;51.034;3.744;2022-09-09T02:21:39;15.20;99.90
21625;DHT22;10974;51.034;3.744;2022-09-09T02:24:07;15.20;99.90
21625;DHT22;10974;51.034;3.744;2022-09-09T02:26:39;15.30;99.90
21625;DHT22;10974;51.034;3.744;2022-09-09T02:29:09;15.30;99.90
21625;DHT22;10974;51.034;3.744;2022-09-09T02:31:37;15.30;99.90
21625;DHT22;10974;51.034;3.744;2022-09-09T02:34:05;15.30;99.90
21625;DHT22;10974;51.034;3.744;2022-09-09T02:36:34;15.40;99.90
21625;DHT22;10974;51.034;3.744;2022-09-09T02:39:01;15.30;99.90
21625;DHT22;10974;51.034;3.744;2022-09-09T02:41:32;15.40;99.90
21625;DHT22;10974;51.034;3.744;2022-09-09T02:43:59;15.40;99.90
21625;DHT22;10974;51.034;3.744;2022-09-09T02:49:06;15.40;99.90
21625;DHT22;10974;51.034;3.744;2022-09-09T02:52:01;15.50;99.90
21625;DHT22;10974;51.034;3.744;2022-09-09T02:54:28;15.40;99.90
21625;DHT22;10974;51.034;3.744;2022-09-09T02:57:21;15.40;99.90
21625;DHT22;10974;51.034;3.744;2022-09-09T02:59:49;15.50;99.90
21625;DHT22;10974;51.034;3.744;2022-09-09T03:08:15;15.50;99.90
21625;DHT22;10974;51.034;3.744;2022-09-09T03:16:01;15.60;99.90
21625;DHT22;10974;51.034;3.744;2022-09-09T03:18:29;15.40;99.90
21625;DHT22;10974;51.034;3.744;2022-09-09T03:32:20;15.60;99.90
21625;DHT22;10974;51.034;3.744;2022-09-09T03:34:48;15.60;99.90
21625;DHT22;10974;51.034;3.744;2022-09-09T03:37:16;15.70;99.90
21625;DHT22;10974;51.034;3.744;2022-09-09T03:39:43;15.60;99.90
21625;DHT22;10974;51.034;3.744;2022-09-09T03:42:08;15.70;99.90
21625;DHT22;10974;51.034;3.744;2022-09-09T03:44:34;15.60;99.90
21625;DHT22;10974;51.034;3.744;2022-09-09T03:47:00;15.60;99.90
21625;DHT22;10974;51.034;3.744;2022-09-09T03:49:26;15.60;99.90
21625;DHT22;10974;51.034;3.744;2022-09-09T03:51:55;15.60;99.90
21625;DHT22;10974;51.034;3.744;2022-09-09T03:54:25;15.60;99.90
21625;DHT22;10974;51.034;3.744;2022-09-09T03:56:51;15.70;99.90
21625;DHT22;10974;51.034;3.744;2022-09-09T03:59:16;15.60;99.90
21625;DHT22;10974;51.034;3.744;2022-09-09T04:01:42;15.60;99.90
21625;DHT22;10974;51.034;3.744;2022-09-09T04:04:08;15.70;99.90
21625;DHT22;10974;51.034;3.744;2022-09-09T04:06:35;15.70;99.90
21625;DHT22;10974;51.034;3.744;2022-09-09T04:09:00;15.70;99.90
21625;DHT22;10974;51.034;3.744;2022-09-09T04:11:28;15.70;99.90
21625;DHT22;10974;51.034;3.744;2022-09-09T04:13:53;15.70;99.90
21625;DHT22;10974;51.034;3.744;2022-09-09T04:16:19;15.70;99.90
21625;DHT22;10974;51.034;3.744;2022-09-09T04:18:45;15.70;99.90
21625;DHT22;10974;51.034;3.744;2022-09-09T04:21:12;15.70;99.90
21625;DHT22;10974;51.034;3.744;2022-09-09T04:23:38;15.70;99.90
21625;DHT22;10974;51.034;3.744;2022-09-09T04:26:05;15.60;99.90
21625;DHT22;10974;51.034;3.744;2022-09-09T04:28:33;15.70;99.90
21625;DHT22;10974;51.034;3.744;2022-09-09T04:31:11;15.70;99.90
21625;DHT22;10974;51.034;3.744;2022-09-09T04:33:39;15.80;99.90
21625;DHT22;10974;51.034;3.744;2022-09-09T04:36:05;15.80;99.90
21625;DHT22;10974;51.034;3.744;2022-09-09T04:38:31;15.80;99.90
21625;DHT22;10974;51.034;3.744;2022-09-09T04:40:57;15.70;99.90
21625;DHT22;10974;51.034;3.744;2022-09-09T04:43:23;15.70;99.90
21625;DHT22;10974;51.034;3.744;2022-09-09T04:45:51;15.60;99.90
21625;DHT22;10974;51.034;3.744;2022-09-09T04:48:18;15.70;99.90
21625;DHT22;10974;51.034;3.744;2022-09-09T04:50:53;15.80;99.90
21625;DHT22;10974;51.034;3.744;2022-09-09T04:53:19;15.70;99.90
21625;DHT22;10974;51.034;3.744;2022-09-09T04:55:45;15.70;99.90
21625;DHT22;10974;51.034;3.744;2022-09-09T04:58:11;15.70;99.90
21625;DHT22;10974;51.034;3.744;2022-09-09T05:00:37;15.70;99.90
21625;DHT22;10974;51.034;3.744;2022-09-09T05:03:06;15.70;99.90
21625;DHT22;10974;51.034;3.744;2022-09-09T05:05:34;15.70;99.90
21625;DHT22;10974;51.034;3.744;2022-09-09T05:08:04;15.70;99.90
21625;DHT22;10974;51.034;3.744;2022-09-09T05:10:30;16.50;99.90
21625;DHT22;10974;51.034;3.744;2022-09-09T05:12:56;17.60;99.90
21625;DHT22;10974;51.034;3.744;2022-09-09T05:15:22;18.20;99.90
21625;DHT22;10974;51.034;3.744;2022-09-09T05:17:48;18.80;99.90
21625;DHT22;10974;51.034;3.744;2022-09-09T05:20:13;19.50;99.90
21625;DHT22;10974;51.034;3.744;2022-09-09T05:22:39;19.60;99.90
21625;DHT22;10974;51.034;3.744;2022-09-09T05:25:06;19.90;99.90
21625;DHT22;10974;51.034;3.744;2022-09-09T05:27:33;20.30;99.90
21625;DHT22;10974;51.034;3.744;2022-09-09T05:29:59;20.50;99.90
21625;DHT22;10974;51.034;3.744;2022-09-09T05:32:25;20.70;99.90
21625;DHT22;10974;51.034;3.744;2022-09-09T05:34:51;20.80;99.90
21625;DHT22;10974;51.034;3.744;2022-09-09T05:37:18;20.80;99.90
21625;DHT22;10974;51.034;3.744;2022-09-09T05:39:43;21.10;99.90
21625;DHT22;10974;51.034;3.744;2022-09-09T05:42:09;21.20;99.90
21625;DHT22;10974;51.034;3.744;2022-09-09T05:44:35;21.30;99.90
21625;DHT22;10974;51.034;3.744;2022-09-09T05:47:01;21.10;99.90
21625;DHT22;10974;51.034;3.744;2022-09-09T05:49:26;21.00;99.90
21625;DHT22;10974;51.034;3.744;2022-09-09T05:51:52;21.50;99.90
21625;DHT22;10974;51.034;3.744;2022-09-09T05:54:18;20.40;99.90
21625;DHT22;10974;51.034;3.744;2022-09-09T05:56:44;19.80;99.90
21625;DHT22;10974;51.034;3.744;2022-09-09T05:59:10;19.60;99.90
21625;DHT22;10974;51.034;3.744;2022-09-09T06:01:37;19.40;99.90
21625;DHT22;10974;51.034;3.744;2022-09-09T06:04:06;19.00;99.90
21625;DHT22;10974;51.034;3.744;2022-09-09T06:06:35;18.90;99.90
21625;DHT22;10974;51.034;3.744;2022-09-09T06:09:03;18.80;99.90
21625;DHT22;10974;51.034;3.744;2022-09-09T06:11:33;18.70;99.90
21625;DHT22;10974;51.034;3.744;2022-09-09T06:13:59;18.70;99.90
21625;DHT22;10974;51.034;3.744;2022-09-09T06:16:27;18.60;99.90
21625;DHT22;10974;51.034;3.744;2022-09-09T06:18:54;18.30;99.90
21625;DHT22;10974;51.034;3.744;2022-09-09T06:21:21;18.30;99.90
21625;DHT22;10974;51.034;3.744;2022-09-09T06:23:48;17.90;99.90
21625;DHT22;10974;51.034;3.744;2022-09-09T06:26:24;17.60;99.90
21625;DHT22;10974;51.034;3.744;2022-09-09T06:28:52;17.40;99.90
21625;DHT22;10974;51.034;3.744;2022-09-09T06:31:23;17.30;99.90
21625;DHT22;10974;51.034;3.744;2022-09-09T06:33:50;17.30;99.90
21625;DHT22;10974;51.034;3.744;2022-09-09T06:36:21;17.30;99.90
21625;DHT22;10974;51.034;3.744;2022-09-09T06:38:48;17.20;99.90
21625;DHT22;10974;51.034;3.744;2022-09-09T06:41:16;17.20;99.90
21625;DHT22;10974;51.034;3.744;2022-09-09T06:43:42;17.20;99.90
21625;DHT22;10974;51.034;3.744;2022-09-09T06:46:12;17.30;99.90
21625;DHT22;10974;51.034;3.744;2022-09-09T06:48:39;17.30;99.90
21625;DHT22;10974;51.034;3.744;2022-09-09T06:53:38;17.50;99.90
21625;DHT22;10974;51.034;3.744;2022-09-09T06:58:39;17.40;99.90
21625;DHT22;10974;51.034;3.744;2022-09-09T07:01:19;17.40;99.90
21625;DHT22;10974;51.034;3.744;2022-09-09T07:03:47;17.40;99.90
21625;DHT22;10974;51.034;3.744;2022-09-09T07:06:24;17.30;99.90
21625;DHT22;10974;51.034;3.744;2022-09-09T07:08:55;17.50;99.90
21625;DHT22;10974;51.034;3.744;2022-09-09T07:11:22;17.80;99.90
21625;DHT22;10974;51.034;3.744;2022-09-09T07:13:48;18.20;99.90
21625;DHT22;10974;51.034;3.744;2022-09-09T07:16:16;18.30;99.90
21625;DHT22;10974;51.034;3.744;2022-09-09T07:18:43;18.90;99.90
21625;DHT22;10974;51.034;3.744;2022-09-09T07:21:11;19.10;99.90
21625;DHT22;10974;51.034;3.744;2022-09-09T07:23:40;19.30;99.90
21625;DHT22;10974;51.034;3.744;2022-09-09T07:26:16;19.70;99.90
21625;DHT22;10974;51.034;3.744;2022-09-09T07:28:42;20.30;99.90
21625;DHT22;10974;51.034;3.744;2022-09-09T07:31:21;20.30;99.90
21625;DHT22;10974;51.034;3.744;2022-09-09T07:33:47;19.90;99.90
21625;DHT22;10974;51.034;3.744;2022-09-09T07:36:17;20.10;99.90
21625;DHT22;10974;51.034;3.744;2022-09-09T07:38:48;20.20;99.90
21625;DHT22;10974;51.034;3.744;2022-09-09T07:41:18;20.20;99.90
21625;DHT22;10974;51.034;3.744;2022-09-09T07:43:46;20.20;99.90
21625;DHT22;10974;51.034;3.744;2022-09-09T07:46:14;20.20;99.90
21625;DHT22;10974;51.034;3.744;2022-09-09T07:48:50;20.10;99.90
21625;DHT22;10974;51.034;3.744;2022-09-09T07:51:18;19.80;99.90
21625;DHT22;10974;51.034;3.744;2022-09-09T07:53:51;20.00;99.90
21625;DHT22;10974;51.034;3.744;2022-09-09T07:56:18;20.10;99.90
21625;DHT22;10974;51.034;3.744;2022-09-09T07:58:47;19.90;99.90
21625;DHT22;10974;51.034;3.744;2022-09-09T08:01:20;20.20;99.90
21625;DHT22;10974;51.034;3.744;2022-09-09T08:03:56;20.40;99.90
21625;DHT22;10974;51.034;3.744;2022-09-09T08:06:24;20.90;99.90
21625;DHT22;10974;51.034;3.744;2022-09-09T08:08:51;20.40;99.90
21625;DHT22;10974;51.034;3.744;2022-09-09T08:11:17;20.50;99.90
21625;DHT22;10974;51.034;3.744;2022-09-09T08:13:44;20.60;99.90
21625;DHT22;10974;51.034;3.744;2022-09-09T08:16:15;20.10;99.90
21625;DHT22;10974;51.034;3.744;2022-09-09T08:18:41;19.50;99.90
21625;DHT22;10974;51.034;3.744;2022-09-09T08:21:16;19.60;99.90
21625;DHT22;10974;51.034;3.744;2022-09-09T08:23:44;19.40;99.90
21625;DHT22;10974;51.034;3.744;2022-09-09T08:28:52;19.20;99.90
21625;DHT22;10974;51.034;3.744;2022-09-09T08:31:20;19.60;99.90
21625;DHT22;10974;51.034;3.744;2022-09-09T08:33:47;19.70;99.90
21625;DHT22;10974;51.034;3.744;2022-09-09T08:36:18;19.70;99.90
21625;DHT22;10974;51.034;3.744;2022-09-09T08:38:46;19.20;99.90
21625;DHT22;10974;51.034;3.744;2022-09-09T08:43:43;19.20;99.90
21625;DHT22;10974;51.034;3.744;2022-09-09T08:46:32;19.40;99.90
21625;DHT22;10974;51.034;3.744;2022-09-09T08:49:39;19.20;99.90
21625;DHT22;10974;51.034;3.744;2022-09-09T08:52:31;19.00;99.90
21625;DHT22;10974;51.034;3.744;2022-09-09T08:55:27;18.90;99.90
21625;DHT22;10974;51.034;3.744;2022-09-09T08:57:58;18.90;99.90
21625;DHT22;10974;51.034;3.744;2022-09-09T09:00:38;19.20;99.90
21625;DHT22;10974;51.034;3.744;2022-09-09T09:03:19;19.30;99.90
21625;DHT22;10974;51.034;3.744;2022-09-09T09:05:57;19.10;99.90
21625;DHT22;10974;51.034;3.744;2022-09-09T09:08:36;18.90;99.90
21625;DHT22;10974;51.034;3.744;2022-09-09T09:11:04;18.80;99.90
21625;DHT22;10974;51.034;3.744;2022-09-09T09:16:57;18.90;99.90
21625;DHT22;10974;51.034;3.744;2022-09-09T09:19:24;19.00;99.90
21625;DHT22;10974;51.034;3.744;2022-09-09T09:27:30;19.00;99.90
21625;DHT22;10974;51.034;3.744;2022-09-09T09:29:58;19.20;99.90
21625;DHT22;10974;51.034;3.744;2022-09-09T09:32:27;19.20;99.90
21625;DHT22;10974;51.034;3.744;2022-09-09T09:34:57;19.30;99.90
21625;DHT22;10974;51.034;3.744;2022-09-09T09:37:32;19.50;99.90
21625;DHT22;10974;51.034;3.744;2022-09-09T09:40:13;19.90;99.90
21625;DHT22;10974;51.034;3.744;2022-09-09T09:42:52;20.20;99.90
21625;DHT22;10974;51.034;3.744;2022-09-09T09:45:47;20.00;99.90
21625;DHT22;10974;51.034;3.744;2022-09-09T09:48:14;19.70;99.90
21625;DHT22;10974;51.034;3.744;2022-09-09T09:56:02;19.40;99.90
21625;DHT22;10974;51.034;3.744;2022-09-09T09:58:37;19.40;99.90
21625;DHT22;10974;51.034;3.744;2022-09-09T10:01:04;18.00;99.90
21625;DHT22;10974;51.034;3.744;2022-09-09T10:03:32;17.40;99.90
21625;DHT22;10974;51.034;3.744;2022-09-09T10:06:03;17.30;99.90
21625;DHT22;10974;51.034;3.744;2022-09-09T10:08:28;17.30;99.90
21625;DHT22;10974;51.034;3.744;2022-09-09T10:13:50;17.30;99.90
21625;DHT22;10974;51.034;3.744;2022-09-09T10:16:36;17.30;99.90
21625;DHT22;10974;51.034;3.744;2022-09-09T10:19:10;17.30;99.90
21625;DHT22;10974;51.034;3.744;2022-09-09T10:24:08;17.30;99.90
21625;DHT22;10974;51.034;3.744;2022-09-09T10:27:15;17.40;99.90
21625;DHT22;10974;51.034;3.744;2022-09-09T10:32:36;17.40;99.90
21625;DHT22;10974;51.034;3.744;2022-09-09T10:38:30;17.40;99.90
21625;DHT22;10974;51.034;3.744;2022-09-09T10:41:05;17.40;99.90
21625;DHT22;10974;51.034;3.744;2022-09-09T10:44:01;17.50;99.90
21625;DHT22;10974;51.034;3.744;2022-09-09T10:57:39;17.90;99.90
21625;DHT22;10974;51.034;3.744;2022-09-09T11:00:16;17.90;99.90
21625;DHT22;10974;51.034;3.744;2022-09-09T11:02:42;18.10;99.90
21625;DHT22;10974;51.034;3.744;2022-09-09T11:08:04;19.10;99.90
21625;DHT22;10974;51.034;3.744;2022-09-09T11:13:01;19.90;99.90
21625;DHT22;10974;51.034;3.744;2022-09-09T11:15:49;19.90;99.90
21625;DHT22;10974;51.034;3.744;2022-09-09T11:18:21;20.30;99.90
21625;DHT22;10974;51.034;3.744;2022-09-09T11:20:51;20.30;99.90
21625;DHT22;10974;51.034;3.744;2022-09-09T11:23:30;20.40;99.90
21625;DHT22;10974;51.034;3.744;2022-09-09T11:26:01;20.60;99.90
21625;DHT22;10974;51.034;3.744;2022-09-09T11:36:43;20.60;99.90
21625;DHT22;10974;51.034;3.744;2022-09-09T11:42:19;21.10;99.90
21625;DHT22;10974;51.034;3.744;2022-09-09T11:44:46;21.20;99.90
21625;DHT22;10974;51.034;3.744;2022-09-09T11:47:29;21.30;99.90
21625;DHT22;10974;51.034;3.744;2022-09-09T11:52:45;20.90;99.90
21625;DHT22;10974;51.034;3.744;2022-09-09T11:55:33;20.50;99.90
21625;DHT22;10974;51.034;3.744;2022-09-09T11:58:00;20.70;99.90
21625;DHT22;10974;51.034;3.744;2022-09-09T12:00:37;20.50;99.90
21625;DHT22;10974;51.034;3.744;2022-09-09T12:03:04;21.00;99.90
21625;DHT22;10974;51.034;3.744;2022-09-09T12:05:40;21.40;99.90
21625;DHT22;10974;51.034;3.744;2022-09-09T12:08:09;21.60;99.90
21625;DHT22;10974;51.034;3.744;2022-09-09T12:10:39;21.70;99.90
21625;DHT22;10974;51.034;3.744;2022-09-09T12:13:18;21.80;99.90
21625;DHT22;10974;51.034;3.744;2022-09-09T12:15:52;22.00;99.90
21625;DHT22;10974;51.034;3.744;2022-09-09T12:18:36;22.00;99.90
21625;DHT22;10974;51.034;3.744;2022-09-09T12:23:58;21.30;99.90
21625;DHT22;10974;51.034;3.744;2022-09-09T12:27:01;21.30;99.90
21625;DHT22;10974;51.034;3.744;2022-09-09T12:29:55;21.30;99.90
21625;DHT22;10974;51.034;3.744;2022-09-09T12:32:26;21.40;99.90
21625;DHT22;10974;51.034;3.744;2022-09-09T12:34:54;21.40;99.90
21625;DHT22;10974;51.034;3.744;2022-09-09T12:37:34;21.40;99.90
21625;DHT22;10974;51.034;3.744;2022-09-09T12:42:46;20.20;99.90
21625;DHT22;10974;51.034;3.744;2022-09-09T12:45:17;20.00;99.90
21625;DHT22;10974;51.034;3.744;2022-09-09T12:48:07;20.30;99.90
21625;DHT22;10974;51.034;3.744;2022-09-09T12:50:38;20.20;99.90
21625;DHT22;10974;51.034;3.744;2022-09-09T12:53:12;20.10;99.90
21625;DHT22;10974;51.034;3.744;2022-09-09T12:56:08;19.90;99.90
21625;DHT22;10974;51.034;3.744;2022-09-09T12:58:36;19.90;99.90
21625;DHT22;10974;51.034;3.744;2022-09-09T13:01:04;19.60;99.90
21625;DHT22;10974;51.034;3.744;2022-09-09T13:03:41;19.50;99.90
21625;DHT22;10974;51.034;3.744;2022-09-09T13:06:20;19.30;99.90
21625;DHT22;10974;51.034;3.744;2022-09-09T13:08:48;19.20;99.90
21625;DHT22;10974;51.034;3.744;2022-09-09T13:11:19;19.20;99.90
21625;DHT22;10974;51.034;3.744;2022-09-09T13:13:53;19.20;99.90
21625;DHT22;10974;51.034;3.744;2022-09-09T13:16:34;19.00;99.90
21625;DHT22;10974;51.034;3.744;2022-09-09T13:21:37;19.20;99.90
21625;DHT22;10974;51.034;3.744;2022-09-09T13:24:05;19.50;99.90
21625;DHT22;10974;51.034;3.744;2022-09-09T13:26:33;19.70;99.90
21625;DHT22;10974;51.034;3.744;2022-09-09T13:29:29;20.20;99.90
21625;DHT22;10974;51.034;3.744;2022-09-09T13:32:04;20.30;99.90
21625;DHT22;10974;51.034;3.744;2022-09-09T13:34:32;20.70;99.90
21625;DHT22;10974;51.034;3.744;2022-09-09T13:37:00;20.80;99.90
21625;DHT22;10974;51.034;3.744;2022-09-09T13:39:28;21.40;99.90
21625;DHT22;10974;51.034;3.744;2022-09-09T13:41:54;21.60;99.90
21625;DHT22;10974;51.034;3.744;2022-09-09T13:47:00;22.00;99.90
21625;DHT22;10974;51.034;3.744;2022-09-09T13:49:28;21.50;99.90
21625;DHT22;10974;51.034;3.744;2022-09-09T13:52:14;21.10;99.90
21625;DHT22;10974;51.034;3.744;2022-09-09T13:54:41;20.50;99.90
21625;DHT22;10974;51.034;3.744;2022-09-09T13:57:23;20.10;99.90
21625;DHT22;10974;51.034;3.744;2022-09-09T13:59:51;20.00;99.90
21625;DHT22;10974;51.034;3.744;2022-09-09T14:02:18;20.00;99.90
21625;DHT22;10974;51.034;3.744;2022-09-09T14:04:44;19.80;99.90
21625;DHT22;10974;51.034;3.744;2022-09-09T14:07:14;19.70;99.90
21625;DHT22;10974;51.034;3.744;2022-09-09T14:09:41;19.70;99.90
21625;DHT22;10974;51.034;3.744;2022-09-09T14:12:11;19.60;99.90
21625;DHT22;10974;51.034;3.744;2022-09-09T14:14:37;19.40;99.90
21625;DHT22;10974;51.034;3.744;2022-09-09T14:17:03;19.30;99.90
21625;DHT22;10974;51.034;3.744;2022-09-09T14:19:29;19.20;99.90
21625;DHT22;10974;51.034;3.744;2022-09-09T14:21:57;19.30;99.90
21625;DHT22;10974;51.034;3.744;2022-09-09T14:24:22;19.40;99.90
21625;DHT22;10974;51.034;3.744;2022-09-09T14:26:48;19.50;99.90
21625;DHT22;10974;51.034;3.744;2022-09-09T14:29:14;19.50;99.90
21625;DHT22;10974;51.034;3.744;2022-09-09T14:31:40;19.50;99.90
21625;DHT22;10974;51.034;3.744;2022-09-09T14:34:05;19.80;99.90
21625;DHT22;10974;51.034;3.744;2022-09-09T14:36:31;20.60;99.90
21625;DHT22;10974;51.034;3.744;2022-09-09T14:38:57;21.00;99.90
21625;DHT22;10974;51.034;3.744;2022-09-09T14:41:24;21.30;99.90
21625;DHT22;10974;51.034;3.744;2022-09-09T14:43:51;21.50;99.90
21625;DHT22;10974;51.034;3.744;2022-09-09T14:46:19;21.80;99.90
21625;DHT22;10974;51.034;3.744;2022-09-09T14:48:45;21.80;99.90
21625;DHT22;10974;51.034;3.744;2022-09-09T14:51:21;21.70;99.90
21625;DHT22;10974;51.034;3.744;2022-09-09T14:53:50;21.70;99.90
21625;DHT22;10974;51.034;3.744;2022-09-09T14:56:18;21.60;99.90
21625;DHT22;10974;51.034;3.744;2022-09-09T14:58:45;21.70;99.90
21625;DHT22;10974;51.034;3.744;2022-09-09T15:01:13;21.70;99.90
21625;DHT22;10974;51.034;3.744;2022-09-09T15:03:41;21.70;99.90
21625;DHT22;10974;51.034;3.744;2022-09-09T15:06:09;21.60;99.90
21625;DHT22;10974;51.034;3.744;2022-09-09T15:08:36;21.30;99.90
21625;DHT22;10974;51.034;3.744;2022-09-09T15:11:03;21.10;99.90
21625;DHT22;10974;51.034;3.744;2022-09-09T15:13:29;21.20;99.90
21625;DHT22;10974;51.034;3.744;2022-09-09T15:15:55;21.20;99.90
21625;DHT22;10974;51.034;3.744;2022-09-09T15:18:21;21.00;99.90
21625;DHT22;10974;51.034;3.744;2022-09-09T15:20:47;21.00;99.90
21625;DHT22;10974;51.034;3.744;2022-09-09T15:23:13;21.30;99.90
21625;DHT22;10974;51.034;3.744;2022-09-09T15:25:51;21.30;85.30
21625;DHT22;10974;51.034;3.744;2022-09-09T15:28:17;21.20;99.90
21625;DHT22;10974;51.034;3.744;2022-09-09T15:30:43;20.90;99.90
21625;DHT22;10974;51.034;3.744;2022-09-09T15:33:10;20.80;99.90
21625;DHT22;10974;51.034;3.744;2022-09-09T15:35:36;20.70;99.90
21625;DHT22;10974;51.034;3.744;2022-09-09T15:38:02;20.60;99.90
21625;DHT22;10974;51.034;3.744;2022-09-09T15:40:31;20.50;99.90
21625;DHT22;10974;51.034;3.744;2022-09-09T15:42:58;20.30;99.90
21625;DHT22;10974;51.034;3.744;2022-09-09T15:45:24;20.20;99.90
21625;DHT22;10974;51.034;3.744;2022-09-09T15:47:49;20.10;99.90
21625;DHT22;10974;51.034;3.744;2022-09-09T15:50:15;20.10;99.90
21625;DHT22;10974;51.034;3.744;2022-09-09T15:52:41;19.90;99.90
21625;DHT22;10974;51.034;3.744;2022-09-09T15:55:07;19.80;99.90
21625;DHT22;10974;51.034;3.744;2022-09-09T15:57:34;19.80;99.90
21625;DHT22;10974;51.034;3.744;2022-09-09T16:00:00;20.00;99.90
21625;DHT22;10974;51.034;3.744;2022-09-09T16:02:26;20.50;99.90
21625;DHT22;10974;51.034;3.744;2022-09-09T16:04:52;20.80;99.90
21625;DHT22;10974;51.034;3.744;2022-09-09T16:07:18;21.10;99.90
21625;DHT22;10974;51.034;3.744;2022-09-09T16:09:43;21.20;99.90
21625;DHT22;10974;51.034;3.744;2022-09-09T16:12:09;21.50;99.90
21625;DHT22;10974;51.034;3.744;2022-09-09T16:14:37;21.90;99.90
21625;DHT22;10974;51.034;3.744;2022-09-09T16:17:05;22.20;99.90
21625;DHT22;10974;51.034;3.744;2022-09-09T16:19:31;22.50;99.90
21625;DHT22;10974;51.034;3.744;2022-09-09T16:21:58;22.60;1.00
21625;DHT22;10974;51.034;3.744;2022-09-09T16:24:23;22.80;99.90
21625;DHT22;10974;51.034;3.744;2022-09-09T16:26:51;22.90;1.00
21625;DHT22;10974;51.034;3.744;2022-09-09T16:29:18;23.00;99.90
21625;DHT22;10974;51.034;3.744;2022-09-09T16:31:45;23.00;99.90
21625;DHT22;10974;51.034;3.744;2022-09-09T16:34:12;22.80;99.90
21625;DHT22;10974;51.034;3.744;2022-09-09T16:36:39;22.60;99.90
21625;DHT22;10974;51.034;3.744;2022-09-09T16:39:12;22.60;99.90
21625;DHT22;10974;51.034;3.744;2022-09-09T16:41:39;22.50;99.90
21625;DHT22;10974;51.034;3.744;2022-09-09T16:44:07;22.50;1.00
21625;DHT22;10974;51.034;3.744;2022-09-09T16:46:36;22.50;1.00
21625;DHT22;10974;51.034;3.744;2022-09-09T16:49:04;22.50;1.00
21625;DHT22;10974;51.034;3.744;2022-09-09T16:51:36;22.40;1.00
21625;DHT22;10974;51.034;3.744;2022-09-09T16:54:04;22.40;99.90
21625;DHT22;10974;51.034;3.744;2022-09-09T16:56:33;22.40;99.90
21625;DHT22;10974;51.034;3.744;2022-09-09T16:59:01;22.30;1.00
21625;DHT22;10974;51.034;3.744;2022-09-09T17:01:30;22.10;94.50
21625;DHT22;10974;51.034;3.744;2022-09-09T17:03:59;22.10;1.00
21625;DHT22;10974;51.034;3.744;2022-09-09T17:06:27;22.20;99.90
21625;DHT22;10974;51.034;3.744;2022-09-09T17:08:56;22.10;1.00
21625;DHT22;10974;51.034;3.744;2022-09-09T17:11:23;22.20;1.00
21625;DHT22;10974;51.034;3.744;2022-09-09T17:13:49;22.30;99.90
21625;DHT22;10974;51.034;3.744;2022-09-09T17:16:17;22.50;99.90
21625;DHT22;10974;51.034;3.744;2022-09-09T17:18:43;22.50;99.90
21625;DHT22;10974;51.034;3.744;2022-09-09T17:21:14;22.60;99.90
21625;DHT22;10974;51.034;3.744;2022-09-09T17:23:41;22.60;99.90
21625;DHT22;10974;51.034;3.744;2022-09-09T17:26:10;22.60;99.90
21625;DHT22;10974;51.034;3.744;2022-09-09T17:28:40;22.00;99.90
21625;DHT22;10974;51.034;3.744;2022-09-09T17:31:09;22.10;99.90
21625;DHT22;10974;51.034;3.744;2022-09-09T17:33:37;22.30;99.90
21625;DHT22;10974;51.034;3.744;2022-09-09T17:36:10;22.40;99.90
21625;DHT22;10974;51.034;3.744;2022-09-09T17:38:37;22.50;99.90
21625;DHT22;10974;51.034;3.744;2022-09-09T17:43:34;22.50;99.90
21625;DHT22;10974;51.034;3.744;2022-09-09T17:48:39;22.40;99.90
21625;DHT22;10974;51.034;3.744;2022-09-09T17:51:06;22.40;99.90
21625;DHT22;10974;51.034;3.744;2022-09-09T17:53:42;22.00;99.90
21625;DHT22;10974;51.034;3.744;2022-09-09T17:56:11;22.10;99.90
21625;DHT22;10974;51.034;3.744;2022-09-09T17:58:38;21.80;99.90
21625;DHT22;10974;51.034;3.744;2022-09-09T18:01:06;21.80;99.90
21625;DHT22;10974;51.034;3.744;2022-09-09T18:03:39;21.80;99.90
21625;DHT22;10974;51.034;3.744;2022-09-09T18:06:07;21.60;99.90
21625;DHT22;10974;51.034;3.744;2022-09-09T18:08:34;21.30;99.90
21625;DHT22;10974;51.034;3.744;2022-09-09T18:11:04;21.30;99.90